createdAt,value
2018-05-03T00:00:04.096Z,9.00
2018-05-03T00:01:09.709Z,9.04
2018-05-03T00:02:14.266Z,9.10
2018-05-03T00:03:19.412Z,8.86
2018-05-03T00:04:24.015Z,8.92
2018-05-03T00:05:28.633Z,9.00
2018-05-03T00:06:33.195Z,9.01
2018-05-03T00:07:38.108Z,9.05
2018-05-03T00:08:42.643Z,9.10
2018-05-03T00:09:47.251Z,9.12
2018-05-03T00:10:51.796Z,9.13
2018-05-03T00:11:56.310Z,9.10
2018-05-03T00:13:01.009Z,8.82
2018-05-03T00:14:05.844Z,8.84
2018-05-03T00:15:10.377Z,8.78
2018-05-03T00:16:14.864Z,8.66
2018-05-03T00:17:19.643Z,8.70
2018-05-03T00:18:24.256Z,8.64
2018-05-03T00:19:28.813Z,8.48
2018-05-03T00:20:33.794Z,8.53
2018-05-03T00:21:38.338Z,8.48
2018-05-03T00:22:42.745Z,8.40
2018-05-03T00:23:48.254Z,8.44
2018-05-03T00:24:52.726Z,8.53
2018-05-03T00:25:57.247Z,8.45
2018-05-03T00:27:02.206Z,8.34
2018-05-03T00:28:06.726Z,8.20
2018-05-03T00:29:11.260Z,8.29
2018-05-03T00:30:15.770Z,8.30
2018-05-03T00:31:20.294Z,8.22
2018-05-03T00:32:25.997Z,8.21
2018-05-03T00:33:30.953Z,8.22
2018-05-03T00:34:35.729Z,8.15
2018-05-03T00:35:40.235Z,8.16
2018-05-03T00:36:44.652Z,8.21
2018-05-03T00:37:49.501Z,8.24
2018-05-03T00:38:55.020Z,8.11
2018-05-03T00:40:00.366Z,8.11
2018-05-03T00:41:04.929Z,8.18
2018-05-03T00:42:09.521Z,8.25
2018-05-03T00:43:15.084Z,8.26
2018-05-03T00:44:19.551Z,8.14
2018-05-03T00:45:23.973Z,8.19
2018-05-03T00:46:28.683Z,8.13
2018-05-03T00:47:33.080Z,8.11
2018-05-03T00:48:37.503Z,8.01
2018-05-03T00:49:42.988Z,8.03
2018-05-03T00:50:47.468Z,8.20
2018-05-03T00:51:53.379Z,8.16
2018-05-03T00:52:58.301Z,8.05
2018-05-03T00:54:02.822Z,7.97
2018-05-03T00:55:08.394Z,8.08
2018-05-03T00:56:13.139Z,8.01
2018-05-03T00:57:17.615Z,7.87
2018-05-03T00:58:22.145Z,7.90
2018-05-03T00:59:27.033Z,7.92
2018-05-03T01:00:31.516Z,8.02
2018-05-03T01:01:36.239Z,7.94
2018-05-03T01:02:40.894Z,7.90
2018-05-03T01:03:45.335Z,7.96
2018-05-03T01:04:49.769Z,8.07
2018-05-03T01:05:54.624Z,8.03
2018-05-03T01:06:58.997Z,8.04
2018-05-03T01:08:03.405Z,7.91
2018-05-03T01:09:07.788Z,7.85
2018-05-03T01:10:12.196Z,7.87
2018-05-03T01:11:16.609Z,7.87
2018-05-03T01:12:21.999Z,7.80
2018-05-03T01:13:26.489Z,7.69
2018-05-03T01:14:31.030Z,7.73
2018-05-03T01:15:36.521Z,7.81
2018-05-03T01:16:42.047Z,7.77
2018-05-03T01:17:46.427Z,7.78
2018-05-03T01:18:51.169Z,7.86
2018-05-03T01:19:55.519Z,7.93
2018-05-03T01:20:59.978Z,7.91
2018-05-03T01:22:04.430Z,7.90
2018-05-03T01:23:08.993Z,7.90
2018-05-03T01:24:13.532Z,7.80
2018-05-03T01:25:18.461Z,7.87
2018-05-03T01:26:23.059Z,7.86
2018-05-03T01:27:27.549Z,7.90
2018-05-03T01:28:32.034Z,7.89
2018-05-03T01:29:36.512Z,7.98
2018-05-03T01:30:41.339Z,8.04
2018-05-03T01:31:45.872Z,7.97
2018-05-03T01:32:50.502Z,7.87
2018-05-03T01:33:55.857Z,7.84
2018-05-03T01:35:04.591Z,7.87
2018-05-03T01:36:42.503Z,7.79
2018-05-03T01:37:47.047Z,7.88
2018-05-03T01:38:52.343Z,7.87
2018-05-03T01:39:57.851Z,7.93
2018-05-03T01:41:02.356Z,8.00
2018-05-03T01:42:06.821Z,8.00
2018-05-03T01:43:11.608Z,8.06
2018-05-03T01:44:15.999Z,8.11
2018-05-03T01:45:20.496Z,8.05
2018-05-03T01:46:40.653Z,7.82
2018-05-03T01:47:46.989Z,7.78
2018-05-03T01:48:51.503Z,7.77
2018-05-03T01:49:56.362Z,7.56
2018-05-03T01:51:00.879Z,7.63
2018-05-03T01:52:05.302Z,7.60
2018-05-03T01:53:09.749Z,7.63
2018-05-03T01:54:14.293Z,7.68
2018-05-03T01:55:19.575Z,7.63
2018-05-03T01:56:24.779Z,7.68
2018-05-03T01:57:29.239Z,7.50
2018-05-03T01:58:33.696Z,7.47
2018-05-03T01:59:38.090Z,7.49
2018-05-03T02:00:42.332Z,7.61
2018-05-03T02:01:46.555Z,7.67
2018-05-03T02:02:51.093Z,7.66
2018-05-03T02:03:55.384Z,7.62
2018-05-03T02:04:59.698Z,7.61
2018-05-03T02:06:04.122Z,7.61
2018-05-03T02:07:08.584Z,7.60
2018-05-03T02:08:13.733Z,7.67
2018-05-03T02:09:18.570Z,7.72
2018-05-03T02:10:23.062Z,7.73
2018-05-03T02:11:27.528Z,7.74
2018-05-03T02:12:32.010Z,7.68
2018-05-03T02:13:36.592Z,7.74
2018-05-03T02:14:42.917Z,7.81
2018-05-03T02:15:47.677Z,7.80
2018-05-03T02:16:53.937Z,7.78
2018-05-03T02:17:58.361Z,7.73
2018-05-03T02:19:02.797Z,7.76
2018-05-03T02:20:07.088Z,7.79
2018-05-03T02:21:11.605Z,7.65
2018-05-03T02:22:16.308Z,7.68
2018-05-03T02:23:20.670Z,7.69
2018-05-03T02:24:24.993Z,7.65
2018-05-03T02:25:29.286Z,7.52
2018-05-03T02:26:33.702Z,7.53
2018-05-03T02:27:38.657Z,7.51
2018-05-03T02:28:43.432Z,7.48
2018-05-03T02:29:47.984Z,7.54
2018-05-03T02:30:55.160Z,7.57
2018-05-03T02:31:59.535Z,7.61
2018-05-03T02:33:04.016Z,7.61
2018-05-03T02:34:08.432Z,7.62
2018-05-03T02:35:13.286Z,7.52
2018-05-03T02:36:17.686Z,7.56
2018-05-03T02:37:22.160Z,7.47
2018-05-03T02:38:26.621Z,7.48
2018-05-03T02:39:32.055Z,7.34
2018-05-03T02:40:36.434Z,7.37
2018-05-03T02:41:40.821Z,7.44
2018-05-03T02:42:45.223Z,7.47
2018-05-03T02:43:49.926Z,7.49
2018-05-03T02:44:54.316Z,7.43
2018-05-03T02:45:58.770Z,7.30
2018-05-03T02:47:03.672Z,7.26
2018-05-03T02:48:08.127Z,7.29
2018-05-03T02:49:12.908Z,7.30
2018-05-03T02:50:17.360Z,7.23
2018-05-03T02:51:21.832Z,7.26
2018-05-03T02:52:26.277Z,7.35
2018-05-03T02:53:31.177Z,7.41
2018-05-03T02:54:35.637Z,7.36
2018-05-03T02:55:40.126Z,7.36
2018-05-03T02:56:44.560Z,7.35
2018-05-03T02:57:58.566Z,7.36
2018-05-03T03:01:19.519Z,7.32
2018-05-03T03:04:33.155Z,7.12
2018-05-03T03:07:49.929Z,6.94
2018-05-03T03:11:06.134Z,7.05
2018-05-03T03:14:18.881Z,7.00
2018-05-03T03:17:35.025Z,6.97
2018-05-03T03:18:48.837Z,6.88
2018-05-03T03:19:57.699Z,6.75
2018-05-03T03:21:11.664Z,6.74
2018-05-03T03:24:53.258Z,6.87
2018-05-03T03:26:06.562Z,6.76
2018-05-03T03:27:20.449Z,6.78
2018-05-03T03:30:36.581Z,6.60
2018-05-03T03:33:49.357Z,6.81
2018-05-03T03:34:54.815Z,6.78
2018-05-03T03:36:03.469Z,6.79
2018-05-03T03:37:16.869Z,6.79
2018-05-03T03:38:30.552Z,6.83
2018-05-03T03:41:47.472Z,6.81
2018-05-03T03:42:56.117Z,6.78
2018-05-03T03:45:05.867Z,6.77
2018-05-03T03:46:10.278Z,6.81
2018-05-03T03:47:14.651Z,6.87
2018-05-03T03:48:19.708Z,6.92
2018-05-03T03:49:24.178Z,6.98
2018-05-03T03:50:28.754Z,6.93
2018-05-03T03:51:33.254Z,6.72
2018-05-03T03:52:37.583Z,6.59
2018-05-03T03:53:43.609Z,6.60
2018-05-03T03:54:48.642Z,6.62
2018-05-03T03:55:53.095Z,6.61
2018-05-03T03:56:58.451Z,6.63
2018-05-03T03:58:02.904Z,6.75
2018-05-03T03:59:07.440Z,6.84
2018-05-03T04:00:12.531Z,6.77
2018-05-03T04:01:17.495Z,6.84
2018-05-03T04:02:21.986Z,6.86
2018-05-03T04:03:26.533Z,6.96
2018-05-03T04:04:32.292Z,7.02
2018-05-03T04:05:38.455Z,7.01
2018-05-03T04:06:42.985Z,7.00
2018-05-03T04:07:47.821Z,7.02
2018-05-03T04:08:52.198Z,7.11
2018-05-03T04:09:57.883Z,7.05
2018-05-03T04:11:02.422Z,7.10
2018-05-03T04:12:08.282Z,7.17
2018-05-03T04:13:13.177Z,7.20
2018-05-03T04:14:19.216Z,7.10
2018-05-03T04:15:23.892Z,7.14
2018-05-03T04:16:28.733Z,7.03
2018-05-03T04:17:37.373Z,7.03
2018-05-03T04:18:47.421Z,6.94
2018-05-03T04:20:01.382Z,6.85
2018-05-03T04:23:17.066Z,6.96
2018-05-03T04:26:30.733Z,6.76
2018-05-03T04:27:35.108Z,6.97
2018-05-03T04:28:39.963Z,7.12
2018-05-03T04:29:44.425Z,7.22
2018-05-03T04:30:49.141Z,7.25
2018-05-03T04:31:53.498Z,7.16
2018-05-03T04:32:58.462Z,7.10
2018-05-03T04:34:05.044Z,7.03
2018-05-03T04:35:10.717Z,6.97
2018-05-03T04:36:15.218Z,7.02
2018-05-03T04:37:19.985Z,7.03
2018-05-03T04:38:24.453Z,7.07
2018-05-03T04:39:29.483Z,6.97
2018-05-03T04:40:34.247Z,6.89
2018-05-03T04:41:38.632Z,6.84
2018-05-03T04:42:44.282Z,6.86
2018-05-03T04:43:49.086Z,6.91
2018-05-03T04:44:54.039Z,6.91
2018-05-03T04:45:58.931Z,7.02
2018-05-03T04:47:03.630Z,7.01
2018-05-03T04:48:08.178Z,7.13
2018-05-03T04:49:12.964Z,7.25
2018-05-03T04:50:18.262Z,7.37
2018-05-03T04:51:22.690Z,7.47
2018-05-03T04:52:27.162Z,7.59
2018-05-03T04:53:31.672Z,7.53
2018-05-03T04:54:36.071Z,7.25
2018-05-03T04:55:40.508Z,7.08
2018-05-03T04:56:45.239Z,7.03
2018-05-03T04:57:49.603Z,7.14
2018-05-03T04:58:54.018Z,7.24
2018-05-03T04:59:58.446Z,7.30
2018-05-03T05:01:02.844Z,7.33
2018-05-03T05:02:07.306Z,7.46
2018-05-03T05:03:12.524Z,7.66
2018-05-03T05:04:17.023Z,7.81
2018-05-03T05:05:21.427Z,7.73
2018-05-03T05:06:26.852Z,7.57
2018-05-03T05:07:31.340Z,7.56
2018-05-03T05:08:35.867Z,7.52
2018-05-03T05:09:40.662Z,7.48
2018-05-03T05:10:45.134Z,7.42
2018-05-03T05:11:49.953Z,7.44
2018-05-03T05:12:54.496Z,7.44
2018-05-03T05:13:59.940Z,7.37
2018-05-03T05:15:04.437Z,7.28
2018-05-03T05:16:10.027Z,7.32
2018-05-03T05:17:15.133Z,7.34
2018-05-03T05:18:19.885Z,7.29
2018-05-03T05:19:24.462Z,7.23
2018-05-03T05:20:28.946Z,7.20
2018-05-03T05:21:33.506Z,7.25
2018-05-03T05:22:38.384Z,7.28
2018-05-03T05:23:43.947Z,7.27
2018-05-03T05:24:48.762Z,7.23
2018-05-03T05:25:53.216Z,7.19
2018-05-03T05:26:58.714Z,7.20
2018-05-03T05:28:03.064Z,7.24
2018-05-03T05:29:08.106Z,7.22
2018-05-03T05:30:12.474Z,7.23
2018-05-03T05:31:16.803Z,7.22
2018-05-03T05:32:21.353Z,7.17
2018-05-03T05:33:25.796Z,7.20
2018-05-03T05:34:30.271Z,7.28
2018-05-03T05:35:34.979Z,7.40
2018-05-03T05:36:39.967Z,7.41
2018-05-03T05:37:44.400Z,7.56
2018-05-03T05:38:48.876Z,7.63
2018-05-03T05:39:53.281Z,7.75
2018-05-03T05:40:57.733Z,7.75
2018-05-03T05:42:02.053Z,7.62
2018-05-03T05:43:06.546Z,7.63
2018-05-03T05:44:12.048Z,7.62
2018-05-03T05:45:18.125Z,7.70
2018-05-03T05:46:22.497Z,7.70
2018-05-03T05:47:27.245Z,7.74
2018-05-03T05:48:31.547Z,7.78
2018-05-03T05:49:36.015Z,7.75
2018-05-03T05:50:40.446Z,7.73
2018-05-03T05:51:44.965Z,7.75
2018-05-03T05:52:49.371Z,7.83
2018-05-03T05:53:54.223Z,7.78
2018-05-03T05:54:58.638Z,7.83
2018-05-03T05:56:03.055Z,7.90
2018-05-03T05:57:07.498Z,7.91
2018-05-03T05:58:11.939Z,7.91
2018-05-03T05:59:16.548Z,7.91
2018-05-03T06:00:21.428Z,7.90
2018-05-03T06:01:25.944Z,8.00
2018-05-03T06:02:30.465Z,8.18
2018-05-03T06:03:35.089Z,8.30
2018-05-03T06:04:39.679Z,8.37
2018-05-03T06:05:44.224Z,8.19
2018-05-03T06:06:49.153Z,8.26
2018-05-03T06:07:53.686Z,8.37
2018-05-03T06:08:58.533Z,8.48
2018-05-03T06:10:03.679Z,8.44
2018-05-03T06:11:08.180Z,8.35
2018-05-03T06:12:12.842Z,8.32
2018-05-03T06:13:17.708Z,8.26
2018-05-03T06:14:22.249Z,8.26
2018-05-03T06:15:26.913Z,8.25
2018-05-03T06:16:31.527Z,8.41
2018-05-03T06:17:36.157Z,8.60
2018-05-03T06:18:40.610Z,8.56
2018-05-03T06:19:46.183Z,8.67
2018-05-03T06:20:50.980Z,8.71
2018-05-03T06:21:56.821Z,8.78
2018-05-03T06:23:01.429Z,8.87
2018-05-03T06:24:07.443Z,8.74
2018-05-03T06:25:13.969Z,8.77
2018-05-03T06:26:19.551Z,8.91
2018-05-03T06:27:24.030Z,8.94
2018-05-03T06:28:29.785Z,8.82
2018-05-03T06:29:34.355Z,8.73
2018-05-03T06:30:39.233Z,8.77
2018-05-03T06:31:43.710Z,8.69
2018-05-03T06:32:48.525Z,8.70
2018-05-03T06:33:53.022Z,8.76
2018-05-03T06:34:57.513Z,8.77
2018-05-03T06:36:01.979Z,8.71
2018-05-03T06:37:06.921Z,8.62
2018-05-03T06:38:11.675Z,8.54
2018-05-03T06:39:16.464Z,8.63
2018-05-03T06:40:23.108Z,8.72
2018-05-03T06:41:28.322Z,8.71
2018-05-03T06:42:32.928Z,8.69
2018-05-03T06:43:37.563Z,8.61
2018-05-03T06:44:42.477Z,8.61
2018-05-03T06:45:47.521Z,8.72
2018-05-03T06:46:52.156Z,8.73
2018-05-03T06:47:56.689Z,8.70
2018-05-03T06:49:01.251Z,8.75
2018-05-03T06:50:06.476Z,8.74
2018-05-03T06:51:11.272Z,8.82
2018-05-03T06:52:16.135Z,8.84
2018-05-03T06:53:20.581Z,8.90
2018-05-03T06:54:26.459Z,8.95
2018-05-03T06:55:30.946Z,9.10
2018-05-03T06:56:35.684Z,9.15
2018-05-03T06:57:40.282Z,9.07
2018-05-03T06:58:45.625Z,9.07
2018-05-03T06:59:50.083Z,9.15
2018-05-03T07:00:54.793Z,9.25
2018-05-03T07:01:59.195Z,9.38
2018-05-03T07:03:03.588Z,9.37
2018-05-03T07:04:08.400Z,9.24
2018-05-03T07:05:14.363Z,9.39
2018-05-03T07:06:18.827Z,9.51
2018-05-03T07:07:23.286Z,9.59
2018-05-03T07:08:28.175Z,9.71
2018-05-03T07:09:32.676Z,9.81
2018-05-03T07:10:37.131Z,10.03
2018-05-03T07:11:41.654Z,10.16
2018-05-03T07:12:46.067Z,10.28
2018-05-03T07:13:50.660Z,10.18
2018-05-03T07:14:55.254Z,10.17
2018-05-03T07:15:59.878Z,10.15
2018-05-03T07:17:04.821Z,10.39
2018-05-03T07:18:10.339Z,10.66
2018-05-03T07:19:14.872Z,10.80
2018-05-03T07:20:20.001Z,11.14
2018-05-03T07:21:24.528Z,11.15
2018-05-03T07:22:31.021Z,10.91
2018-05-03T07:23:37.059Z,11.25
2018-05-03T07:24:41.502Z,11.10
2018-05-03T07:25:46.961Z,11.19
2018-05-03T07:26:51.418Z,11.15
2018-05-03T07:27:55.906Z,11.14
2018-05-03T07:29:00.395Z,11.48
2018-05-03T07:30:06.207Z,11.90
2018-05-03T07:31:11.447Z,11.91
2018-05-03T07:32:17.622Z,11.70
2018-05-03T07:33:22.187Z,11.69
2018-05-03T07:34:26.727Z,11.79
2018-05-03T07:35:31.271Z,12.20
2018-05-03T07:36:36.023Z,12.55
2018-05-03T07:37:40.546Z,12.61
2018-05-03T07:38:44.995Z,12.03
2018-05-03T07:39:49.641Z,11.84
2018-05-03T07:40:54.480Z,12.20
2018-05-03T07:41:59.984Z,12.66
2018-05-03T07:43:06.005Z,12.92
2018-05-03T07:44:10.713Z,12.96
2018-05-03T07:45:15.292Z,12.99
2018-05-03T07:46:21.076Z,12.78
2018-05-03T07:47:25.651Z,12.90
2018-05-03T07:48:32.531Z,13.11
2018-05-03T07:49:37.327Z,13.32
2018-05-03T07:50:41.933Z,13.43
2018-05-03T07:51:46.573Z,13.83
2018-05-03T07:52:51.136Z,13.80
2018-05-03T07:53:55.806Z,13.64
2018-05-03T07:55:02.207Z,13.43
2018-05-03T07:56:06.864Z,13.73
2018-05-03T07:57:11.428Z,13.76
2018-05-03T07:58:15.870Z,13.89
2018-05-03T07:59:20.729Z,14.01
2018-05-03T08:00:25.654Z,13.73
2018-05-03T08:01:31.351Z,13.86
2018-05-03T08:02:35.914Z,13.78
2018-05-03T08:03:40.383Z,13.65
2018-05-03T08:04:45.374Z,14.07
2018-05-03T08:05:50.128Z,14.24
2018-05-03T08:06:56.498Z,13.87
2018-05-03T08:08:01.514Z,14.01
2018-05-03T08:09:07.116Z,14.08
2018-05-03T08:10:11.789Z,14.31
2018-05-03T08:11:16.353Z,14.32
2018-05-03T08:12:21.983Z,14.31
2018-05-03T08:13:26.716Z,14.46
2018-05-03T08:14:32.296Z,14.39
2018-05-03T08:15:36.873Z,14.42
2018-05-03T08:16:41.679Z,14.75
2018-05-03T08:17:47.581Z,14.68
2018-05-03T08:18:52.486Z,14.92
2018-05-03T08:19:57.761Z,15.26
2018-05-03T08:21:03.140Z,15.38
2018-05-03T08:22:09.694Z,15.65
2018-05-03T08:23:15.053Z,15.87
2018-05-03T08:24:19.677Z,16.05
2018-05-03T08:25:24.285Z,16.12
2018-05-03T08:26:29.971Z,16.16
2018-05-03T08:27:36.626Z,16.28
2018-05-03T08:28:41.607Z,16.58
2018-05-03T08:29:46.354Z,16.19
2018-05-03T08:30:51.328Z,15.85
2018-05-03T08:31:55.985Z,15.31
2018-05-03T08:33:00.591Z,15.22
2018-05-03T08:34:05.897Z,15.19
2018-05-03T08:35:10.372Z,15.17
2018-05-03T08:36:15.255Z,15.42
2018-05-03T08:37:20.291Z,15.72
2018-05-03T08:38:26.301Z,15.69
2018-05-03T08:39:30.765Z,15.76
2018-05-03T08:40:35.802Z,15.66
2018-05-03T08:41:40.623Z,15.61
2018-05-03T08:42:45.233Z,15.56
2018-05-03T08:43:49.851Z,15.53
2018-05-03T08:44:54.457Z,15.55
2018-05-03T08:45:59.527Z,15.31
2018-05-03T08:47:04.804Z,14.99
2018-05-03T08:48:09.334Z,14.90
2018-05-03T08:49:13.960Z,14.93
2018-05-03T08:50:18.803Z,14.78
2018-05-03T08:51:23.458Z,14.72
2018-05-03T08:52:29.396Z,15.10
2018-05-03T08:53:33.992Z,15.45
2018-05-03T08:54:38.654Z,15.91
2018-05-03T08:55:43.339Z,16.10
2018-05-03T08:56:47.797Z,16.38
2018-05-03T08:57:52.296Z,16.44
2018-05-03T08:58:57.277Z,16.74
2018-05-03T09:00:01.939Z,17.06
2018-05-03T09:01:06.617Z,17.18
2018-05-03T09:02:11.090Z,17.43
2018-05-03T09:03:15.610Z,17.53
2018-05-03T09:04:20.281Z,17.07
2018-05-03T09:05:24.778Z,16.96
2018-05-03T09:06:46.120Z,17.06
2018-05-03T09:07:51.457Z,17.10
2018-05-03T09:08:56.021Z,17.34
2018-05-03T09:10:00.625Z,16.84
2018-05-03T09:11:05.598Z,16.57
2018-05-03T09:12:10.230Z,16.47
2018-05-03T09:13:14.879Z,16.96
2018-05-03T09:14:19.500Z,16.74
2018-05-03T09:15:24.198Z,16.52
2018-05-03T09:16:28.776Z,16.37
2018-05-03T09:17:33.796Z,16.61
2018-05-03T09:18:38.369Z,16.80
2018-05-03T09:19:43.332Z,16.94
2018-05-03T09:20:47.837Z,17.23
2018-05-03T09:21:52.751Z,17.45
2018-05-03T09:22:57.402Z,17.77
2018-05-03T09:24:01.995Z,17.76
2018-05-03T09:25:06.821Z,17.04
2018-05-03T09:26:11.345Z,17.49
2018-05-03T09:27:15.913Z,17.75
2018-05-03T09:28:20.445Z,17.69
2018-05-03T09:29:25.253Z,17.23
2018-05-03T09:30:29.765Z,17.03
2018-05-03T09:31:34.260Z,17.12
2018-05-03T09:32:38.842Z,16.87
2018-05-03T09:33:43.487Z,16.25
2018-05-03T09:34:48.127Z,15.85
2018-05-03T09:35:53.244Z,15.84
2018-05-03T09:36:57.888Z,15.85
2018-05-03T09:38:02.987Z,16.12
2018-05-03T09:39:07.611Z,16.67
2018-05-03T09:40:13.206Z,16.48
2018-05-03T09:41:17.784Z,16.84
2018-05-03T09:42:22.705Z,17.25
2018-05-03T09:43:27.317Z,17.36
2018-05-03T09:44:31.853Z,17.38
2018-05-03T09:45:37.384Z,17.22
2018-05-03T09:46:42.058Z,17.09
2018-05-03T09:47:46.654Z,17.08
2018-05-03T09:48:51.685Z,17.39
2018-05-03T09:49:56.331Z,17.47
2018-05-03T09:51:00.888Z,17.53
2018-05-03T09:52:05.494Z,17.80
2018-05-03T09:53:10.082Z,17.87
2018-05-03T09:54:14.648Z,18.09
2018-05-03T09:55:20.064Z,18.30
2018-05-03T09:56:24.651Z,18.08
2018-05-03T09:57:29.218Z,18.12
2018-05-03T09:58:33.695Z,17.97
2018-05-03T09:59:38.204Z,18.06
2018-05-03T10:00:42.724Z,18.25
2018-05-03T10:01:47.217Z,18.51
2018-05-03T10:02:51.732Z,18.55
2018-05-03T10:03:56.266Z,18.46
2018-05-03T10:05:00.781Z,18.31
2018-05-03T10:06:05.606Z,18.29
2018-05-03T10:07:10.410Z,18.29
2018-05-03T10:08:14.943Z,18.09
2018-05-03T10:09:19.452Z,18.18
2018-05-03T10:10:24.005Z,18.06
2018-05-03T10:11:28.473Z,18.24
2018-05-03T10:12:33.243Z,18.14
2018-05-03T10:13:37.892Z,18.25
2018-05-03T10:14:42.395Z,18.21
2018-05-03T10:15:46.841Z,17.88
2018-05-03T10:16:51.351Z,18.00
2018-05-03T10:17:55.855Z,18.12
2018-05-03T10:19:00.630Z,18.48
2018-05-03T10:20:05.217Z,18.68
2018-05-03T10:21:09.653Z,18.70
2018-05-03T10:22:14.447Z,18.38
2018-05-03T10:23:19.084Z,18.21
2018-05-03T10:24:23.645Z,18.38
2018-05-03T10:25:28.517Z,18.40
2018-05-03T10:26:33.085Z,18.78
2018-05-03T10:27:41.257Z,19.18
2018-05-03T10:28:45.924Z,19.17
2018-05-03T10:29:50.554Z,19.02
2018-05-03T10:30:55.492Z,17.91
2018-05-03T10:32:00.011Z,17.86
2018-05-03T10:33:04.511Z,18.23
2018-05-03T10:34:08.967Z,18.52
2018-05-03T10:35:13.522Z,18.95
2018-05-03T10:36:18.046Z,18.73
2018-05-03T10:37:22.739Z,18.49
2018-05-03T10:38:27.152Z,18.57
2018-05-03T10:39:31.527Z,18.54
2018-05-03T10:40:35.883Z,18.17
2018-05-03T10:41:40.221Z,18.41
2018-05-03T10:42:44.698Z,18.33
2018-05-03T10:43:49.737Z,18.62
2018-05-03T10:44:54.395Z,18.59
2018-05-03T10:45:59.033Z,18.35
2018-05-03T10:47:03.831Z,18.80
2018-05-03T10:48:08.526Z,18.98
2018-05-03T10:49:13.171Z,19.17
2018-05-03T10:50:17.784Z,19.12
2018-05-03T10:51:22.452Z,19.06
2018-05-03T10:52:27.008Z,18.77
2018-05-03T10:53:31.640Z,18.84
2018-05-03T10:54:36.176Z,19.05
2018-05-03T10:55:41.138Z,19.01
2018-05-03T10:56:45.797Z,19.06
2018-05-03T10:57:50.385Z,19.06
2018-05-03T10:58:55.048Z,19.20
2018-05-03T10:59:59.623Z,18.92
2018-05-03T11:01:04.100Z,18.40
2018-05-03T11:02:09.014Z,18.39
2018-05-03T11:03:13.645Z,18.77
2018-05-03T11:04:18.238Z,19.01
2018-05-03T11:05:23.024Z,18.82
2018-05-03T11:06:27.724Z,18.49
2018-05-03T11:07:32.280Z,18.73
2018-05-03T11:08:37.464Z,19.11
2018-05-03T11:09:42.045Z,19.10
2018-05-03T11:10:46.618Z,19.16
2018-05-03T11:11:51.275Z,18.69
2018-05-03T11:12:55.835Z,18.83
2018-05-03T11:14:00.383Z,19.00
2018-05-03T11:15:05.446Z,18.85
2018-05-03T11:16:09.988Z,18.63
2018-05-03T11:17:15.049Z,18.81
2018-05-03T11:18:19.541Z,18.55
2018-05-03T11:19:24.093Z,18.70
2018-05-03T11:20:28.565Z,18.88
2018-05-03T11:21:34.279Z,18.83
2018-05-03T11:22:38.800Z,18.70
2018-05-03T11:23:43.293Z,18.73
2018-05-03T11:24:47.769Z,18.73
2018-05-03T11:25:52.386Z,19.00
2018-05-03T11:26:56.964Z,19.12
2018-05-03T11:28:01.814Z,18.56
2018-05-03T11:29:06.513Z,18.98
2018-05-03T11:30:11.075Z,18.97
2018-05-03T11:31:15.714Z,19.28
2018-05-03T11:32:20.293Z,19.32
2018-05-03T11:33:24.933Z,19.54
2018-05-03T11:34:29.929Z,19.71
2018-05-03T11:35:34.631Z,19.42
2018-05-03T11:36:39.213Z,18.76
2018-05-03T11:37:44.021Z,18.92
2018-05-03T11:38:48.524Z,19.03
2018-05-03T11:39:53.133Z,19.23
2018-05-03T11:40:58.117Z,19.38
2018-05-03T11:42:03.457Z,19.35
2018-05-03T11:43:07.926Z,19.12
2018-05-03T11:44:12.545Z,18.48
2018-05-03T11:45:17.151Z,18.88
2018-05-03T11:46:21.667Z,18.45
2018-05-03T11:47:26.569Z,18.79
2018-05-03T11:48:31.105Z,19.25
2018-05-03T11:49:35.701Z,19.40
2018-05-03T11:50:40.551Z,19.27
2018-05-03T11:51:45.061Z,19.11
2018-05-03T11:52:49.630Z,18.60
2018-05-03T11:53:54.639Z,18.89
2018-05-03T11:54:59.195Z,19.22
2018-05-03T11:56:03.537Z,19.67
2018-05-03T11:57:08.027Z,19.42
2018-05-03T11:58:12.608Z,19.40
2018-05-03T11:59:17.216Z,19.13
2018-05-03T12:00:22.234Z,19.32
2018-05-03T12:01:26.892Z,19.71
2018-05-03T12:02:31.616Z,19.93
2018-05-03T12:03:36.657Z,19.72
2018-05-03T12:04:41.409Z,19.85
2018-05-03T12:05:45.895Z,19.93
2018-05-03T12:06:50.757Z,20.40
2018-05-03T12:07:55.436Z,20.27
2018-05-03T12:08:59.993Z,18.80
2018-05-03T12:10:04.620Z,18.09
2018-05-03T12:11:09.219Z,18.55
2018-05-03T12:12:13.745Z,18.30
2018-05-03T12:13:19.073Z,18.99
2018-05-03T12:14:23.560Z,19.38
2018-05-03T12:15:28.062Z,19.29
2018-05-03T12:16:33.230Z,19.54
2018-05-03T12:17:38.036Z,19.79
2018-05-03T12:18:44.534Z,19.95
2018-05-03T12:19:48.997Z,19.99
2018-05-03T12:20:53.463Z,20.04
2018-05-03T12:21:58.134Z,20.07
2018-05-03T12:23:03.426Z,20.10
2018-05-03T12:24:08.054Z,20.05
2018-05-03T12:25:13.153Z,19.98
2018-05-03T12:26:17.743Z,20.06
2018-05-03T12:27:22.383Z,20.27
2018-05-03T12:28:27.097Z,20.18
2018-05-03T12:29:31.982Z,20.14
2018-05-03T12:30:36.572Z,20.14
2018-05-03T12:31:42.442Z,20.21
2018-05-03T12:32:47.109Z,20.31
2018-05-03T12:33:51.684Z,20.04
2018-05-03T12:34:56.176Z,20.30
2018-05-03T12:36:00.727Z,20.31
2018-05-03T12:37:05.230Z,19.82
2018-05-03T12:38:10.195Z,19.28
2018-05-03T12:39:14.722Z,19.53
2018-05-03T12:40:19.260Z,18.79
2018-05-03T12:41:23.784Z,19.01
2018-05-03T12:42:28.341Z,19.41
2018-05-03T12:43:32.969Z,19.28
2018-05-03T12:44:38.062Z,19.76
2018-05-03T12:45:42.661Z,19.94
2018-05-03T12:46:47.169Z,20.09
2018-05-03T12:47:51.730Z,20.56
2018-05-03T12:48:56.265Z,20.48
2018-05-03T12:50:00.759Z,20.63
2018-05-03T12:51:05.616Z,20.54
2018-05-03T12:52:10.174Z,20.70
2018-05-03T12:53:14.516Z,20.67
2018-05-03T12:54:18.897Z,20.54
2018-05-03T12:55:23.352Z,20.36
2018-05-03T12:56:27.827Z,20.90
2018-05-03T12:57:32.584Z,21.06
2018-05-03T12:58:36.960Z,20.69
2018-05-03T12:59:41.395Z,20.75
2018-05-03T13:00:46.043Z,21.00
2018-05-03T13:01:50.753Z,21.02
2018-05-03T13:02:55.222Z,20.46
2018-05-03T13:04:00.160Z,20.61
2018-05-03T13:05:05.650Z,20.91
2018-05-03T13:06:10.290Z,21.18
2018-05-03T13:07:14.777Z,21.35
2018-05-03T13:08:19.268Z,21.39
2018-05-03T13:09:23.635Z,21.20
2018-05-03T13:10:28.657Z,21.11
2018-05-03T13:11:33.112Z,21.36
2018-05-03T13:12:37.510Z,21.73
2018-05-03T13:13:41.837Z,21.45
2018-05-03T13:14:46.348Z,21.78
2018-05-03T13:15:50.801Z,21.65
2018-05-03T13:16:55.474Z,21.59
2018-05-03T13:18:00.004Z,21.38
2018-05-03T13:19:04.524Z,21.71
2018-05-03T13:20:09.080Z,21.94
2018-05-03T13:21:14.324Z,21.59
2018-05-03T13:22:19.138Z,21.33
2018-05-03T13:23:23.609Z,21.42
2018-05-03T13:24:28.197Z,21.72
2018-05-03T13:25:32.731Z,21.73
2018-05-03T13:26:37.248Z,21.94
2018-05-03T13:27:41.803Z,22.14
2018-05-03T13:28:46.700Z,21.70
2018-05-03T13:29:51.183Z,21.35
2018-05-03T13:30:55.695Z,21.43
2018-05-03T13:32:00.195Z,21.39
2018-05-03T13:33:04.670Z,21.90
2018-05-03T13:34:09.271Z,22.08
2018-05-03T13:35:14.149Z,22.42
2018-05-03T13:36:18.645Z,22.22
2018-05-03T13:37:23.152Z,21.50
2018-05-03T13:38:27.677Z,20.46
2018-05-03T13:39:32.499Z,20.26
2018-05-03T13:40:37.252Z,21.32
2018-05-03T13:41:42.170Z,22.06
2018-05-03T13:42:46.717Z,22.10
2018-05-03T13:43:51.162Z,21.64
2018-05-03T13:44:55.664Z,21.74
2018-05-03T13:46:00.208Z,21.84
2018-05-03T13:47:04.713Z,22.13
2018-05-03T13:48:09.556Z,22.09
2018-05-03T13:49:14.054Z,22.29
2018-05-03T13:50:18.512Z,22.43
2018-05-03T13:51:24.086Z,22.18
2018-05-03T13:52:28.593Z,21.73
2018-05-03T13:53:33.081Z,21.67
2018-05-03T13:54:40.433Z,21.91
2018-05-03T13:55:47.205Z,22.04
2018-05-03T13:56:52.001Z,22.51
2018-05-03T13:57:56.529Z,22.58
2018-05-03T13:59:02.718Z,22.54
2018-05-03T14:00:07.514Z,22.81
2018-05-03T14:01:12.091Z,22.63
2018-05-03T14:02:16.657Z,22.08
2018-05-03T14:03:21.261Z,22.15
2018-05-03T14:04:25.759Z,22.37
2018-05-03T14:05:30.330Z,22.50
2018-05-03T14:06:34.859Z,22.25
2018-05-03T14:07:39.314Z,22.73
2018-05-03T14:08:43.796Z,22.85
2018-05-03T14:09:48.335Z,22.58
2018-05-03T14:10:52.915Z,23.11
2018-05-03T14:11:57.988Z,23.33
2018-05-03T14:13:02.686Z,23.07
2018-05-03T14:14:07.846Z,23.29
2018-05-03T14:15:12.420Z,24.12
2018-05-03T14:16:17.022Z,23.63
2018-05-03T14:17:21.669Z,23.28
2018-05-03T14:18:26.670Z,23.49
2018-05-03T14:19:31.348Z,23.57
2018-05-03T14:20:35.912Z,23.27
2018-05-03T14:21:40.430Z,23.60
2018-05-03T14:22:44.958Z,23.62
2018-05-03T14:23:49.464Z,23.55
2018-05-03T14:24:53.924Z,23.48
2018-05-03T14:25:58.450Z,23.25
2018-05-03T14:27:03.011Z,23.28
2018-05-03T14:28:07.494Z,23.38
2018-05-03T14:29:12.061Z,23.58
2018-05-03T14:30:16.556Z,24.10
2018-05-03T14:31:21.028Z,23.91
2018-05-03T14:32:25.576Z,23.13
2018-05-03T14:33:30.071Z,23.13
2018-05-03T14:34:34.559Z,23.78
2018-05-03T14:35:39.324Z,23.79
2018-05-03T14:36:43.815Z,24.81